createdAt,value
2023-04-04T00:04:42.073Z,12.70
2023-04-04T00:14:49.323Z,13.10
2023-04-04T00:24:57.346Z,14.00
2023-04-04T00:35:04.438Z,22.40
2023-04-04T00:45:09.342Z,10.20
2023-04-04T00:55:16.868Z,10.10
2023-04-04T01:05:24.148Z,10.60
2023-04-04T01:15:32.066Z,17.00
2023-04-04T01:25:39.970Z,15.00
2023-04-04T01:35:53.873Z,18.20
2023-04-04T01:46:00.189Z,24.60
2023-04-04T01:56:07.098Z,13.70
2023-04-04T02:06:14.592Z,11.40
2023-04-04T02:16:21.876Z,14.80
2023-04-04T02:26:29.108Z,18.10
2023-04-04T02:36:36.492Z,15.60
2023-04-04T02:46:43.500Z,18.20
2023-04-04T02:56:50.718Z,18.90
2023-04-04T03:06:58.059Z,16.10
2023-04-04T03:17:05.232Z,11.80
2023-04-04T03:27:12.147Z,10.90
2023-04-04T03:37:19.073Z,12.30
2023-04-04T03:47:26.902Z,14.30
2023-04-04T03:57:34.761Z,19.60
2023-04-04T04:07:43.940Z,20.60
2023-04-04T04:17:50.954Z,20.30
2023-04-04T04:27:57.998Z,23.30
2023-04-04T04:38:05.112Z,34.90
2023-04-04T04:48:13.257Z,14.70
2023-04-04T04:58:20.116Z,29.60
2023-04-04T05:08:31.119Z,24.60
2023-04-04T05:18:38.922Z,33.00
2023-04-04T05:28:46.123Z,20.30
2023-04-04T05:38:52.873Z,31.20
2023-04-04T05:49:00.155Z,13.90
2023-04-04T05:59:07.795Z,11.70
2023-04-04T06:09:14.997Z,14.60
2023-04-04T06:19:22.213Z,11.20
2023-04-04T06:29:29.252Z,9.80
2023-04-04T06:39:36.795Z,12.70
2023-04-04T06:49:43.997Z,12.70
2023-04-04T06:59:51.464Z,7.70
2023-04-04T07:09:58.496Z,5.80
2023-04-04T07:20:05.115Z,6.10
2023-04-04T07:30:13.019Z,7.80
2023-04-04T07:40:20.241Z,9.40
2023-04-04T07:50:26.622Z,11.60
2023-04-04T08:00:34.384Z,9.20
2023-04-04T08:10:40.844Z,7.70
2023-04-04T08:20:48.592Z,14.40
2023-04-04T08:30:54.610Z,22.20
2023-04-04T08:41:00.149Z,11.10
2023-04-04T08:51:09.502Z,12.30
2023-04-04T09:01:16.614Z,13.40
2023-04-04T09:11:24.723Z,9.30
2023-04-04T09:21:36.195Z,12.20
2023-04-04T09:31:46.851Z,7.50
2023-04-04T09:41:56.046Z,5.30
2023-04-04T09:52:03.264Z,5.50
2023-04-04T10:02:09.125Z,11.10
2023-04-04T10:12:17.548Z,7.80
2023-04-04T10:22:25.939Z,16.00
2023-04-04T10:32:32.790Z,9.00
2023-04-04T10:42:39.067Z,7.20
2023-04-04T10:52:47.480Z,7.70
2023-04-04T11:02:58.196Z,11.30
2023-04-04T11:13:12.326Z,9.20
2023-04-04T11:23:21.224Z,8.90
2023-04-04T11:33:33.766Z,9.90
2023-04-04T11:43:45.603Z,9.60
2023-04-04T11:53:52.878Z,6.60
2023-04-04T12:04:01.556Z,6.90
2023-04-04T12:14:07.969Z,8.60
2023-04-04T12:24:16.058Z,11.60
2023-04-04T12:34:22.104Z,11.40
2023-04-04T12:44:26.998Z,9.60
2023-04-04T12:54:36.668Z,5.30
2023-04-04T13:04:46.809Z,10.50
2023-04-04T13:15:03.157Z,9.40
2023-04-04T13:25:10.378Z,11.60
2023-04-04T13:35:17.511Z,8.20
2023-04-04T13:45:24.846Z,10.00
2023-04-04T13:55:31.042Z,9.90
2023-04-04T14:05:38.587Z,8.10
2023-04-04T14:15:45.732Z,7.40
2023-04-04T14:25:52.875Z,12.30
2023-04-04T14:35:59.941Z,15.00
2023-04-04T14:46:07.555Z,14.20
2023-04-04T14:56:15.073Z,10.40
2023-04-04T15:06:22.272Z,4.30
2023-04-04T15:16:33.210Z,6.60
2023-04-04T15:26:40.974Z,9.50
2023-04-04T15:36:50.286Z,13.00
2023-04-04T15:46:58.082Z,15.70
2023-04-04T15:57:04.511Z,13.70
2023-04-04T16:07:12.088Z,23.60
2023-04-04T16:17:19.198Z,27.70
2023-04-04T16:27:26.137Z,27.90
2023-04-04T16:37:33.988Z,23.20
2023-04-04T16:47:41.650Z,14.90
2023-04-04T16:57:49.781Z,19.70
2023-04-04T17:07:57.120Z,20.10
2023-04-04T17:18:04.377Z,27.90
2023-04-04T17:28:11.619Z,36.40
2023-04-04T17:38:17.348Z,32.50
2023-04-04T17:48:26.138Z,111.30
2023-04-04T17:58:33.209Z,54.40
2023-04-04T18:08:40.465Z,49.50
2023-04-04T18:18:45.299Z,81.30
2023-04-04T18:28:52.338Z,159.00
2023-04-04T18:39:01.254Z,80.80
2023-04-04T18:49:08.727Z,65.30
2023-04-04T18:59:15.240Z,55.70
2023-04-04T19:09:21.825Z,54.40
2023-04-04T19:19:29.354Z,42.30
2023-04-04T19:29:37.822Z,58.00
2023-04-04T19:39:45.286Z,75.80
2023-04-04T19:49:51.441Z,94.50
2023-04-04T20:00:13.635Z,119.20
2023-04-04T20:10:36.556Z,170.20
2023-04-04T20:20:47.793Z,229.60
2023-04-04T20:30:55.720Z,184.90
2023-04-04T20:41:03.464Z,147.70
2023-04-04T20:51:27.262Z,183.70
2023-04-04T21:01:34.378Z,215.40
2023-04-04T21:11:43.694Z,151.80
2023-04-04T21:21:51.591Z,117.60
2023-04-04T21:32:00.236Z,128.70
2023-04-04T21:42:09.167Z,120.50
2023-04-04T21:52:16.339Z,100.70
2023-04-04T22:02:23.319Z,97.80
2023-04-04T22:22:53.864Z,81.30
2023-04-04T22:33:01.080Z,57.00
2023-04-04T22:43:08.311Z,63.60
2023-04-04T22:53:15.217Z,46.60
2023-04-04T23:13:28.387Z,43.00
2023-04-04T23:23:36.755Z,64.10
2023-04-04T23:33:43.862Z,54.10
2023-04-04T23:43:50.957Z,41.50
2023-04-04T23:53:57.254Z,47.40
